Date,TemperatureHighF,TemperatureAvgF,TemperatureLowF,DewpointHighF,DewpointAvgF,DewpointLowF,HumidityHigh,HumidityAvg,HumidityLow,PressureMaxIn,PressureMinIn,WindSpeedMaxMPH,WindSpeedAvgMPH,GustSpeedMaxMPH,PrecipitationSumIn
2012-1-1,49,41,36,39,37,33,97,86,60,30.07,29.61,7,3,14,0.15
2012-1-2,35,27,20,33,22,15,94,82,72,29.77,29.60,9,4,17,0.00
2012-1-3,20,8,2,16,-8,-100,91,69,62,30.24,29.75,8,-111,16,0.00
2012-1-4,18,10,2,12,-9,-100,88,65,64,30.27,29.99,3,-126,8,0.00
2012-1-5,29,20,17,23,4,-100,90,74,74,30.00,29.89,8,-128,17,0.00
2012-1-6,48,33,26,32,11,-100,87,58,51,29.93,29.74,7,-130,13,0.01
2012-1-7,48,35,33,36,14,-100,80,61,60,29.99,29.70,6,-132,12,0.00
2012-1-8,34,26,17,29,15,-100,90,75,68,30.36,29.98,10,-43,16,0.00
2012-1-9,37,26,16,21,16,13,92,68,41,30.36,29.98,4,2,10,0.00
2012-1-10,33,31,28,29,24,18,85,77,64,30.05,29.86,7,4,12,0.00
2012-1-11,44,33,23,30,26,22,94,76,51,30.11,29.87,6,1,12,0.01
2012-1-12,35,32,31,34,31,30,98,96,92,29.87,29.49,6,2,9,0.12
2012-1-13,40,27,18,38,25,15,98,91,82,29.72,29.20,10,5,26,0.37
2012-1-14,20,13,7,16,-9,-100,86,67,69,30.16,29.71,8,-177,16,0.00
2012-1-15,10,2,-7,2,-20,-100,89,61,57,30.70,30.15,7,-165,12,0.00
2012-1-16,28,13,-10,23,-8,-100,89,61,43,30.70,30.14,7,-135,15,0.00
2012-1-17,46,32,27,42,13,-100,96,76,81,30.14,29.48,9,-164,20,0.37
2012-1-18,45,17,4,40,1,-100,92,69,65,30.20,29.50,12,-110,21,0.00
2012-1-19,26,14,0,19,-9,-100,92,60,28,30.26,29.97,6,-149,12,0.00
2012-1-20,23,11,8,19,-11,-100,90,63,58,30.35,29.97,8,-163,13,0.00
2012-1-21,16,10,4,12,-11,-100,92,69,68,30.45,30.17,5,-169,7,0.00
2012-1-22,31,17,1,27,-4,-100,92,64,46,30.58,30.41,6,-153,11,0.00
2012-1-23,49,36,31,46,18,-100,93,76,85,30.42,29.82,9,-142,17,0.09
2012-1-24,44,29,28,42,7,-100,96,71,79,30.15,29.83,12,-193,15,0.00
2012-1-25,28,20,25,26,-3,-100,92,70,87,30.34,30.15,8,-212,16,0.00
2012-1-26,39,25,21,37,5,-100,97,76,85,30.27,29.82,6,-180,11,0.31
2012-1-27,53,40,31,51,33,-100,97,88,81,29.85,29.32,12,-46,25,0.56
2012-1-28,42,32,27,30,25,17,94,75,51,30.01,29.83,9,4,24,0.00
2012-1-29,34,29,23,22,17,13,69,62,54,30.13,29.97,9,4,16,0.00
2012-1-30,30,23,16,25,17,11,94,79,54,30.30,29.97,10,3,18,0.00
2012-1-31,53,41,23,36,28,18,92,60,51,30.25,29.99,6,3,13,0.02
2012-2-1,51,44,34,44,36,29,92,75,51,30.05,29.82,8,4,15,0.16
2012-2-2,34,28,21,30,25,17,90,86,83,30.34,30.02,6,3,10,0.00
2012-2-3,33,26,17,26,20,14,92,80,57,30.53,30.34,7,3,14,0.00
2012-2-4,33,28,18,27,23,16,93,81,69,30.37,30.17,6,3,11,0.00
2012-2-5,30,21,12,20,16,10,95,80,57,30.22,30.15,5,2,10,0.00
2012-2-6,46,34,24,27,22,20,88,65,36,30.19,29.98,7,3,12,0.00
2012-2-7,36,31,18,28,24,14,84,77,56,30.30,29.99,6,3,16,0.00
2012-2-8,31,24,13,21,14,8,92,67,37,30.33,30.13,3,1,6,0.00
2012-2-9,38,28,20,21,17,12,85,64,41,30.17,30.10,5,2,11,0.00
2012-2-10,36,27,18,24,20,15,91,73,55,30.15,29.92,5,1,11,0.00
2012-2-11,32,25,7,26,21,2,95,86,72,29.92,29.65,6,2,13,0.02
2012-2-12,21,10,2,14,-8,-100,89,68,64,29.96,29.77,10,-129,18,0.00
2012-2-13,35,25,16,22,11,-100,90,64,44,30.04,29.93,9,-39,16,0.00
2012-2-14,34,27,23,29,8,-100,85,62,44,30.08,30.01,4,-111,11,0.00
2012-2-15,35,31,27,33,26,-100,93,85,68,30.31,30.07,4,-24,7,0.00
2012-2-16,35,24,20,34,12,-100,95,83,87,30.31,29.98,4,-110,11,0.05
2012-2-17,36,30,30,34,11,-100,100,69,59,30.02,29.96,10,-129,12,0.07
2012-2-18,34,29,22,29,18,-100,95,77,61,30.07,29.87,6,-53,10,0.00
2012-2-19,33,24,17,26,9,-100,95,73,64,30.15,30.06,5,-91,11,0.03
2012-2-20,33,21,14,19,2,-100,90,64,47,30.39,30.08,6,-113,11,0.00
2012-2-21,39,26,10,29,8,-100,93,63,42,30.41,29.82,6,-94,18,0.00
2012-2-22,46,36,34,34,18,-100,95,64,50,29.83,29.43,7,-96,16,0.04
2012-2-23,44,31,27,36,16,-100,95,74,68,29.79,29.36,7,-102,13,0.10
2012-2-24,36,32,27,35,30,25,97,92,77,29.76,29.34,9,3,20,0.34
2012-2-25,33,26,21,27,21,14,94,83,71,30.05,29.34,14,8,31,0.00
2012-2-26,32,20,15,15,2,-100,85,62,46,30.47,30.04,9,-92,31,0.00
2012-2-27,44,32,17,31,13,-100,84,57,46,30.44,30.08,8,-80,16,0.02
2012-2-28,34,25,23,25,7,-100,85,64,58,30.42,30.19,10,-111,20,0.00
2012-2-29,32,28,24,30,25,20,96,89,77,30.40,29.78,7,3,18,0.00
2012-3-1,33,31,28,32,30,27,97,96,95,29.95,29.69,7,2,13,0.01
2012-3-2,39,33,31,33,30,29,97,89,74,30.05,29.71,5,2,12,0.22
2012-3-3,49,40,31,42,30,14,94,70,26,29.71,29.40,10,5,23,0.18
2012-3-4,33,28,19,25,20,16,93,72,53,29.73,29.57,7,4,15,0.00
2012-3-5,27,18,12,16,8,3,87,67,43,30.41,29.73,7,4,14,0.00
2012-3-6,37,29,11,18,13,7,83,51,36,30.65,30.51,4,2,11,0.00
2012-3-7,59,46,33,36,25,18,60,44,24,30.51,30.23,6,4,15,0.00
2012-3-8,63,51,32,50,43,30,96,75,54,30.23,29.71,11,5,19,0.56
2012-3-9,33,28,20,30,23,11,96,82,62,30.27,29.87,7,4,16,0.05
2012-3-10,31,23,16,21,15,10,86,73,58,30.56,30.27,7,3,17,0.00
2012-3-11,57,42,27,31,21,13,61,44,33,30.48,30.32,6,3,15,0.01
2012-3-12,66,50,33,43,30,24,84,50,25,30.34,30.07,4,1,11,0.02
2012-3-13,66,56,46,56,47,37,91,72,56,30.08,29.86,6,2,19,0.02
2012-3-14,56,47,34,43,33,25,93,61,35,30.23,29.98,7,2,14,0.00
2012-3-15,67,47,34,43,34,25,86,64,32,30.28,30.16,5,1,9,0.00
2012-3-16,55,48,39,52,45,36,95,90,84,30.22,30.08,4,1,9,0.06
2012-3-17,70,52,40,47,41,33,98,72,27,30.33,30.20,3,1,6,0.00
2012-3-18,75,59,44,53,45,38,97,66,27,30.29,30.13,4,1,11,0.00
2012-3-19,74,58,45,58,51,44,96,81,49,30.21,30.11,4,1,8,0.13
2012-3-20,74,58,44,58,49,43,98,76,43,30.29,30.19,3,1,9,0.00
2012-3-21,76,58,42,56,49,41,98,76,42,30.36,30.20,4,1,9,0.00
2012-3-22,76,59,46,57,52,45,98,78,44,30.26,30.07,4,1,9,0.00
2012-3-23,69,57,48,52,44,35,97,67,32,30.16,30.05,4,1,8,0.00
2012-3-24,56,51,46,38,29,20,71,44,33,30.07,29.94,6,2,11,0.02
2012-3-25,58,48,42,49,42,33,94,81,64,29.94,29.74,5,1,8,0.03
2012-3-26,49,34,22,46,21,1,94,61,35,30.17,29.71,11,6,22,0.00
2012-3-27,42,26,16,16,4,0,59,41,19,30.36,30.14,7,3,22,0.00
2012-3-28,64,46,31,47,30,7,93,57,26,30.15,29.54,8,3,12,0.15
2012-3-29,42,35,31,39,32,25,96,89,76,30.03,29.63,7,4,17,0.05
2012-3-30,46,35,25,26,18,10,80,54,24,30.13,29.97,6,3,17,0.00
2012-3-31,35,33,31,34,31,30,96,93,90,29.94,29.89,9,2,11,0.11
2012-4-1,40,36,33,36,33,32,97,91,79,29.90,29.68,4,1,9,0.21
2012-4-2,41,34,29,29,22,16,94,66,40,29.93,29.73,7,3,15,0.11
2012-4-3,54,42,27,19,15,10,69,36,18,30.00,29.81,6,3,17,0.00
2012-4-4,52,42,29,33,25,15,86,53,35,29.76,29.59,10,4,18,0.00
2012-4-5,43,33,25,27,24,20,91,72,50,30.01,29.75,7,3,17,0.00
2012-4-6,46,34,21,25,22,19,95,63,36,30.11,30.00,8,3,18,0.00
2012-4-7,50,37,22,26,19,13,80,51,30,30.13,30.05,9,3,15,0.00
2012-4-8,54,41,25,38,23,14,90,52,23,30.05,29.71,11,4,21,0.05
2012-4-9,46,40,36,36,28,22,90,62,39,29.72,29.61,10,6,20,0.00
2012-4-10,51,41,34,34,26,20,91,57,31,29.80,29.63,8,4,22,0.01
2012-4-11,45,37,32,35,32,29,95,82,57,29.98,29.78,5,2,9,0.02
2012-4-12,50,40,31,37,32,27,95,73,48,30.18,29.98,8,3,11,0.00
2012-4-13,57,41,24,33,27,22,95,62,27,30.25,30.15,6,2,12,0.00
2012-4-14,65,49,29,39,29,20,86,52,19,30.24,30.00,5,2,12,0.00
2012-4-15,63,55,49,57,52,40,97,87,58,30.01,29.93,5,2,12,0.24
2012-4-16,84,71,55,57,52,45,89,56,26,29.98,29.81,6,3,18,0.00
2012-4-17,71,56,43,57,41,33,78,58,33,30.21,29.85,6,4,18,0.00
2012-4-18,56,46,31,34,31,27,88,57,37,30.29,30.13,3,1,12,0.00
2012-4-19,68,50,30,42,34,27,93,61,31,30.13,29.97,5,1,12,0.00
2012-4-20,74,66,55,49,45,37,80,49,28,29.97,29.77,5,4,12,0.00
2012-4-21,70,55,41,56,50,40,97,84,57,29.80,29.64,5,3,12,0.69
2012-4-22,42,39,34,41,38,34,98,96,91,29.84,29.56,6,2,12,0.99
2012-4-23,55,41,34,52,39,34,98,94,81,29.55,29.18,6,3,14,0.38
2012-4-24,44,36,32,38,32,30,94,86,68,29.67,29.28,7,3,15,0.10
2012-4-25,46,39,32,36,30,26,89,73,47,29.94,29.67,8,3,15,0.00
2012-4-26,56,41,24,47,35,23,97,81,39,29.95,29.60,5,2,13,0.00
2012-4-27,36,32,30,30,26,23,88,77,72,30.14,29.80,10,6,20,0.01
2012-4-28,51,38,25,26,20,15,82,52,26,30.26,30.14,6,3,20,0.00
2012-4-29,51,37,21,23,18,12,85,50,24,30.31,30.14,10,3,19,0.00
2012-4-30,64,46,24,40,23,16,83,46,20,30.37,30.09,4,2,19,0.03
2012-5-1,56,51,48,53,48,39,97,90,69,30.10,29.94,5,2,11,0.14
2012-5-2,63,53,49,56,51,48,98,92,76,30.11,30.03,3,1,7,0.01
2012-5-3,78,61,52,62,54,49,94,81,46,30.10,29.89,3,2,7,0.00
2012-5-4,75,64,54,63,58,53,97,84,57,30.00,29.85,6,2,12,0.42
2012-5-5,56,54,52,56,54,50,98,98,96,29.94,29.89,1,0,9,0.00
2012-5-6,70,61,47,51,43,35,76,52,35,30.08,30.02,3,1,6,0.00
2012-5-7,70,56,45,53,42,28,93,62,44,30.09,29.95,4,2,10,0.07
2012-5-8,58,54,48,55,51,42,97,90,73,29.95,29.77,5,3,16,0.79
2012-5-9,66,58,50,58,54,47,98,88,58,29.79,29.59,4,1,8,0.07
2012-5-10,50,44,41,47,42,38,96,92,83,29.81,29.51,7,3,13,0.19
2012-5-11,59,47,33,39,34,23,97,65,28,30.13,29.81,9,3,19,0.00
2012-5-12,74,55,34,48,39,32,95,61,29,30.25,30.13,5,2,12,0.00
2012-5-13,75,65,47,53,48,41,92,59,32,30.18,30.07,5,1,8,0.00
2012-5-14,68,58,53,59,55,52,97,89,67,30.11,30.04,4,1,8,0.48
2012-5-15,65,59,55,61,57,55,98,95,82,30.07,29.92,3,0,8,0.89
2012-5-16,77,63,48,62,54,42,98,76,37,29.97,29.75,6,2,10,0.00
2012-5-17,62,49,34,43,38,33,97,68,36,30.20,29.97,5,2,9,0.00
2012-5-18,73,53,31,44,36,28,97,62,22,30.26,30.16,3,1,7,0.00
2012-5-19,80,62,40,54,46,39,97,62,31,30.21,30.11,3,1,7,0.00
2012-5-20,82,72,60,58,53,45,66,52,38,30.22,30.17,3,1,8,0.00
2012-5-21,70,60,49,63,55,40,97,85,64,30.19,29.99,4,1,9,0.25
2012-5-22,70,62,57,64,60,56,98,94,80,29.99,29.80,2,0,9,0.28
2012-5-23,78,64,57,65,60,56,98,88,61,30.01,29.84,2,0,5,0.01
2012-5-24,74,65,56,64,60,56,98,86,70,30.13,30.01,3,1,7,0.00
2012-5-25,75,67,60,65,61,56,91,82,68,30.15,30.03,4,2,10,0.00
2012-5-26,79,69,56,66,59,51,95,74,41,30.13,30.06,4,1,10,0.00
2012-5-27,81,66,49,63,55,46,93,71,42,30.17,29.97,4,1,9,0.00
2012-5-28,85,73,62,70,65,59,98,78,51,29.98,29.84,4,1,9,0.00
2012-5-29,88,73,61,71,66,60,97,80,46,29.84,29.60,6,2,13,1.06
2012-5-30,76,64,52,63,59,50,98,85,52,29.78,29.67,4,1,13,0.06
2012-5-31,68,56,43,54,48,42,98,78,48,29.99,29.76,5,1,10,0.01
2012-6-1,66,56,42,55,49,41,97,79,60,30.03,29.77,4,2,10,0.01
2012-6-2,66,55,43,57,52,42,97,89,65,29.77,29.66,5,2,14,0.45
2012-6-3,63,51,40,56,47,39,98,89,64,29.77,29.64,4,1,8,0.37
2012-6-4,55,49,44,50,47,44,98,94,80,29.76,29.62,3,1,7,0.05
2012-6-5,59,53,44,51,48,43,97,86,73,29.97,29.91,3,0,6,0.04
2012-6-6,65,51,41,55,48,40,98,90,63,30.02,29.94,3,1,7,0.19
2012-6-7,70,55,41,57,49,41,99,83,48,30.02,29.93,5,1,8,0.02
2012-6-8,75,59,41,57,51,41,99,77,44,29.97,29.83,5,1,12,0.03
2012-6-9,63,58,52,60,56,51,98,95,90,30.00,29.85,2,0,6,0.13
2012-6-10,83,68,55,67,62,54,99,82,52,30.13,30.00,2,0,6,0.10
2012-6-11,81,69,61,70,62,53,97,78,60,30.16,30.08,4,2,10,0.00
2012-6-12,68,63,60,62,59,55,97,87,75,30.08,29.84,5,2,16,0.26
2012-6-13,70,62,51,61,55,49,97,80,59,30.13,29.85,4,2,9,0.03
2012-6-14,76,61,47,58,52,46,98,73,44,30.28,30.13,3,1,7,0.00
2012-6-15,64,51,45,54,47,43,97,87,66,30.32,30.24,2,0,6,0.00
2012-6-16,81,72,58,60,57,53,88,62,42,30.32,30.17,2,1,7,0.00
2012-6-17,78,65,54,61,55,51,91,73,49,30.17,29.98,3,1,7,0.00
2012-6-18,72,63,55,61,56,52,93,78,61,30.09,30.01,4,2,7,0.00
2012-6-19,80,68,59,70,63,56,93,84,67,30.09,30.00,4,2,10,0.00
2012-6-20,89,77,65,75,69,64,98,80,56,30.07,29.93,3,1,10,0.00
2012-6-21,89,76,63,70,66,62,98,75,47,29.94,29.76,4,1,8,0.00
2012-6-22,80,69,58,71,64,56,98,85,61,29.84,29.75,4,1,7,0.11
2012-6-23,77,63,52,64,56,51,98,81,44,30.02,29.84,4,1,12,0.14
2012-6-24,77,63,47,59,54,46,98,75,40,30.04,29.86,3,1,9,0.01
2012-6-25,67,59,50,61,55,46,96,88,67,29.86,29.67,6,2,13,0.47
2012-6-26,63,54,49,53,49,46,97,86,67,29.77,29.70,6,2,14,0.08
2012-6-27,73,62,50,53,49,39,92,65,31,29.83,29.72,8,3,19,0.00
2012-6-28,82,66,50,61,55,48,95,69,38,29.84,29.69,4,1,12,0.00
2012-6-29,86,73,62,72,62,51,95,70,32,29.71,29.62,6,2,15,0.07
2012-6-30,83,72,54,64,57,50,97,65,35,29.76,29.67,5,2,11,0.00
2012-7-1,82,71,58,66,59,51,97,69,35,29.88,29.76,5,2,12,0.00
2012-7-2,79,65,54,63,56,52,98,75,44,29.94,29.87,5,1,19,0.00
2012-7-3,83,68,52,62,56,50,98,70,36,29.98,29.80,3,1,8,0.00
2012-7-4,85,73,65,72,66,61,96,80,59,29.81,29.70,5,2,9,0.01
2012-7-5,82,71,58,67,61,54,98,74,41,29.89,29.72,5,2,11,0.00
2012-7-6,88,70,52,70,61,51,98,76,42,29.94,29.84,3,1,7,0.00
2012-7-7,84,69,58,68,63,57,98,83,47,29.88,29.79,5,1,11,0.01
2012-7-8,82,68,56,66,59,54,98,76,39,29.91,29.84,5,1,11,0.01
2012-7-9,78,64,49,60,52,47,98,69,38,30.02,29.90,4,1,8,0.00
2012-7-10,81,63,45,57,51,44,97,69,38,30.11,30.00,2,1,5,0.00
2012-7-11,86,71,52,60,54,46,98,59,26,30.17,30.10,3,1,5,0.00
2012-7-12,89,72,59,66,58,48,95,66,25,30.17,30.08,3,1,6,0.00
2012-7-13,87,72,58,66,61,57,94,70,42,30.19,30.10,3,1,6,0.00
2012-7-14,88,74,64,67,62,58,97,70,38,30.17,30.05,3,1,6,0.05
2012-7-15,80,69,61,71,66,60,98,91,72,30.11,29.90,3,1,9,0.37
2012-7-16,82,72,63,70,65,60,98,82,48,29.92,29.79,4,1,9,0.03
2012-7-17,91,77,62,68,64,61,97,67,41,29.85,29.68,6,2,14,0.00
2012-7-18,85,76,62,72,66,59,90,71,50,29.89,29.71,5,1,9,0.00
2012-7-19,83,70,58,60,55,49,91,63,34,29.97,29.89,3,1,11,0.00
2012-7-20,67,62,56,60,56,50,97,83,68,30.07,29.94,3,1,8,0.06
2012-7-21,81,67,55,62,55,51,98,72,37,30.10,30.02,3,1,9,0.00
2012-7-22,83,70,55,63,59,54,97,72,45,30.12,30.04,4,1,9,0.00
2012-7-23,85,72,64,73,66,61,97,83,62,30.07,29.73,4,2,10,0.77
2012-7-24,81,71,54,69,63,50,91,78,50,29.80,29.61,7,3,16,0.08
2012-7-25,78,64,48,58,52,47,98,71,38,29.93,29.79,4,1,8,0.01
2012-7-26,84,70,60,70,63,55,96,80,58,29.80,29.58,5,2,11,0.40
2012-7-27,81,71,66,69,65,61,97,84,53,29.89,29.63,3,1,7,0.12
2012-7-28,76,67,63,70,65,62,98,94,79,29.94,29.87,2,0,7,0.42
2012-7-29,78,67,59,69,63,58,98,88,61,30.04,29.93,2,0,7,0.33
2012-7-30,83,69,56,67,59,51,99,76,36,30.09,30.01,3,1,6,0.01
2012-7-31,80,70,61,68,64,59,97,82,60,30.05,29.86,4,1,8,0.00
2012-8-1,81,70,63,70,64,61,97,83,59,29.88,29.78,4,1,10,0.03
2012-8-2,83,69,57,66,60,56,98,77,41,29.91,29.83,4,1,9,0.01
2012-8-3,89,74,62,67,63,60,92,71,41,30.08,29.90,3,1,8,0.00
2012-8-4,89,75,61,71,65,60,98,74,42,30.16,30.08,4,1,12,0.00
2012-8-5,81,75,69,73,69,67,96,84,71,30.11,29.85,5,3,17,0.59
2012-8-6,74,66,53,68,59,52,97,80,55,30.02,29.93,4,2,17,0.01
2012-8-7,82,64,47,62,52,44,99,73,27,30.05,29.95,3,1,9,0.00
2012-8-8,86,70,53,64,59,52,98,71,41,30.00,29.91,3,1,8,0.00
2012-8-9,86,70,62,68,63,60,97,81,49,29.94,29.82,4,1,11,1.25
2012-8-10,77,66,60,69,64,59,98,93,72,29.86,29.74,2,0,9,0.22
2012-8-11,81,71,63,70,64,56,98,79,50,29.88,29.77,5,1,10,0.00
2012-8-12,77,67,56,62,58,55,97,76,52,29.94,29.86,4,1,8,0.00
2012-8-13,74,65,57,65,60,56,97,86,66,29.99,29.93,3,1,9,0.00
2012-8-14,72,58,54,64,56,53,98,93,70,29.97,29.87,3,0,9,0.00
2012-8-15,75,64,58,65,61,57,98,90,65,29.92,29.84,2,0,6,0.47
2012-8-16,78,66,54,64,59,52,98,81,53,29.95,29.85,4,1,9,0.00
2012-8-17,78,63,52,67,59,51,98,87,65,29.89,29.77,4,1,8,0.29
2012-8-18,70,60,48,56,53,47,99,79,52,29.98,29.86,3,1,10,0.00
2012-8-19,73,56,41,54,48,40,99,78,37,30.02,29.92,3,0,10,0.01
2012-8-20,75,58,47,62,55,46,98,90,56,29.96,29.86,3,0,6,0.15
2012-8-21,74,61,52,58,53,49,98,79,43,30.10,29.95,4,1,9,0.01
2012-8-22,78,69,56,61,56,53,99,66,43,30.17,30.10,3,1,6,0.00
2012-8-23,80,65,53,63,56,52,98,75,39,30.17,30.11,3,1,8,0.00
2012-8-24,83,65,48,64,57,48,99,78,41,30.21,30.15,3,0,8,0.00
2012-8-25,82,68,55,65,60,54,98,78,47,30.27,30.20,2,0,6,0.00
2012-8-26,84,70,59,63,59,57,97,72,44,30.29,30.17,3,1,8,0.00
2012-8-27,80,68,57,68,62,55,95,83,65,30.18,29.90,5,1,14,0.01
2012-8-28,77,67,56,66,61,55,98,84,56,29.93,29.80,5,2,11,0.53
2012-8-29,70,57,45,56,49,44,99,77,45,30.06,29.93,4,1,7,0.00
2012-8-30,75,58,40,58,50,39,99,77,50,30.13,30.05,4,1,10,0.01
2012-8-31,84,70,52,62,57,50,96,67,41,30.08,29.87,5,2,12,0.00
2012-9-1,80,69,54,66,59,52,98,74,40,30.07,29.92,3,1,7,0.00
2012-9-2,82,64,49,61,53,48,98,73,35,30.10,30.03,3,1,5,0.00
2012-9-3,73,65,56,62,57,51,95,76,55,30.12,30.07,3,1,8,0.00
2012-9-4,76,70,64,70,66,60,96,88,76,30.07,29.73,3,1,7,0.22
2012-9-5,76,67,58,69,64,57,98,89,66,29.85,29.69,5,1,12,0.14
2012-9-6,82,66,54,68,61,53,99,87,60,29.91,29.82,3,1,11,0.02
2012-9-7,81,67,59,67,62,58,99,84,51,29.93,29.80,3,0,11,0.00
2012-9-8,78,66,55,67,60,53,97,85,65,29.83,29.49,12,2,20,0.87
2012-9-9,67,55,44,57,51,44,99,89,65,29.95,29.75,3,1,17,0.05
2012-9-10,62,50,40,52,44,39,99,82,50,30.17,29.95,6,2,11,0.00
2012-9-11,68,50,33,49,42,32,99,79,41,30.32,30.17,3,1,6,0.01
2012-9-12,78,58,40,59,49,40,99,78,42,30.38,30.30,3,1,7,0.00
2012-9-13,80,64,45,59,54,44,98,73,41,30.36,30.25,3,1,7,0.00
2012-9-14,77,63,48,57,53,48,98,74,43,30.28,30.05,4,1,8,0.00
2012-9-15,63,53,42,55,48,41,97,85,61,30.15,30.08,4,2,9,0.17
2012-9-16,64,51,40,51,44,40,98,81,48,30.15,30.07,4,1,9,0.00
2012-9-17,75,56,39,55,47,38,99,77,43,30.14,30.00,3,1,8,0.00
2012-9-18,67,62,54,65,60,48,97,91,69,30.00,29.50,7,3,22,2.13
2012-9-19,58,50,37,53,45,36,97,85,60,30.22,29.72,5,2,22,0.10
2012-9-20,65,50,35,50,43,34,99,80,50,30.25,30.10,4,1,10,0.00
2012-9-21,70,60,52,59,54,50,92,81,64,30.10,29.95,4,2,11,0.00
2012-9-22,59,56,52,56,54,52,98,92,86,29.95,29.78,3,1,14,0.36
2012-9-23,59,48,38,52,42,37,98,82,50,30.14,29.83,5,1,14,0.00
2012-9-24,57,44,30,45,37,30,99,81,47,30.19,30.10,4,1,9,0.01
2012-9-25,67,55,45,48,41,38,76,61,35,30.14,30.06,5,2,12,0.00
2012-9-26,61,58,54,58,55,48,97,91,71,30.07,29.99,3,2,11,0.16
2012-9-27,64,56,47,58,50,42,98,82,47,30.20,30.04,4,1,10,0.00
2012-9-28,53,50,47,53,49,46,98,96,80,30.17,29.99,3,1,7,0.92
2012-9-29,53,50,48,51,49,48,99,96,87,29.99,29.90,2,0,7,0.06
2012-9-30,58,50,48,51,47,44,98,90,65,29.91,29.75,4,1,9,0.04
2012-10-1,58,51,47,52,48,46,97,91,79,29.99,29.73,5,3,13,0.01
2012-10-2,63,56,46,60,54,45,98,93,77,30.02,29.96,2,0,12,0.03
2012-10-3,77,66,59,70,64,59,99,92,74,30.10,29.99,4,1,7,0.03
2012-10-4,65,61,52,64,60,52,99,97,93,30.12,30.03,2,0,7,0.22
2012-10-5,73,59,47,60,54,47,99,87,60,30.07,29.90,4,1,13,0.03
2012-10-6,64,52,41,57,49,36,98,88,74,29.99,29.72,6,2,13,0.06
2012-10-7,49,42,37,39,37,33,95,81,61,30.11,29.98,4,1,13,0.06
2012-10-8,49,41,36,40,37,35,97,86,60,30.30,30.09,3,1,10,0.02
2012-10-9,56,45,33,46,42,32,98,87,67,30.29,30.09,3,1,9,0.00
2012-10-10,55,48,39,52,46,36,97,91,70,30.09,29.77,6,2,11,0.21
2012-10-11,50,42,37,37,33,30,88,71,47,30.17,29.92,7,4,18,0.00
2012-10-12,45,37,25,39,30,22,96,77,54,30.44,30.05,6,3,18,0.16
2012-10-13,48,35,20,31,24,18,97,68,37,30.54,30.25,4,1,10,0.00
2012-10-14,67,53,42,57,47,30,94,80,57,30.26,29.84,7,4,18,0.20
2012-10-15,62,57,47,57,52,43,94,85,74,29.85,29.59,6,3,16,0.14
2012-10-16,47,40,30,43,35,28,96,83,69,29.96,29.66,7,4,16,0.02
2012-10-17,64,43,26,41,34,26,98,75,31,30.05,29.94,3,0,16,0.00
2012-10-18,62,52,42,50,43,36,87,72,48,30.00,29.90,5,2,13,0.00
2012-10-19,63,57,52,60,55,50,98,95,87,29.94,29.63,4,2,14,1.38
2012-10-20,60,52,44,57,46,38,98,82,58,29.77,29.61,5,2,13,0.16
2012-10-21,55,48,42,44,40,38,87,75,59,30.02,29.77,7,4,17,0.00
2012-10-22,46,44,43,41,41,40,91,88,82,30.05,30.01,3,2,17,0.00
2012-10-23,50,49,49,49,49,48,98,98,97,30.13,30.10,2,0,3,0.23
2012-10-24,51,49,47,51,48,46,99,98,98,30.19,30.11,3,0,7,0.05
2012-10-25,70,56,48,60,53,47,99,91,70,30.24,30.17,2,1,7,0.00
2012-10-26,63,55,45,56,52,44,99,89,74,30.20,30.10,4,1,9,0.01
2012-10-27,60,54,50,54,51,49,98,90,75,30.12,29.95,4,1,8,0.00
2012-10-28,52,50,47,50,46,40,98,87,70,29.96,29.76,5,2,13,0.00
2012-10-29,58,49,45,56,48,44,98,94,87,29.77,28.92,11,5,22,1.36
2012-10-30,55,49,47,52,46,43,97,90,82,29.43,29.02,7,3,20,0.17
2012-10-31,48,40,37,44,37,34,94,88,79,29.53,29.39,4,2,17,0.09
2012-11-1,41,39,37,39,37,35,96,94,91,29.59,29.50,4,2,11,0.17
2012-11-2,40,36,32,37,34,31,97,92,82,29.76,29.59,6,3,12,0.04
2012-11-3,36,33,31,34,32,30,98,96,89,29.99,29.76,7,3,13,0.13
2012-11-4,35,32,28,32,30,24,97,92,84,30.05,29.98,6,2,10,0.01
2012-11-5,34,28,25,24,21,18,86,74,60,30.21,30.04,6,2,10,0.00
2012-11-6,40,26,15,22,18,13,95,73,47,30.27,30.15,3,1,8,0.01
2012-11-7,31,27,22,23,19,16,85,71,58,30.18,29.97,5,1,10,0.00
2012-11-8,37,30,26,24,22,19,85,71,54,30.04,29.92,7,3,14,0.00
2012-11-9,43,34,22,35,27,19,89,77,51,30.23,30.03,6,2,12,0.00
2012-11-10,46,41,38,39,37,34,94,86,76,30.39,30.22,2,1,12,0.00
2012-11-11,69,56,43,42,39,37,82,55,37,30.43,30.36,5,2,16,0.00
2012-11-12,65,59,53,53,44,37,79,60,46,30.38,30.05,7,4,16,0.00
2012-11-13,59,35,30,54,32,24,97,89,78,30.49,30.03,11,2,21,0.41
2012-11-14,40,30,22,25,22,20,95,75,47,30.63,30.49,4,1,13,0.04
2012-11-15,38,29,21,27,23,19,94,79,59,30.53,30.39,2,0,3,0.02
2012-11-16,41,31,20,30,25,19,96,79,56,30.55,30.38,3,1,6,0.03
2012-11-17,45,30,20,32,26,19,97,85,57,30.71,30.55,3,0,6,0.01
2012-11-18,48,32,23,32,26,21,97,80,51,30.73,30.61,3,0,8,0.00
2012-11-19,51,32,20,32,23,19,96,74,34,30.61,30.30,2,0,5,0.00
2012-11-20,51,35,24,31,24,20,92,66,31,30.31,30.15,2,0,4,0.00
2012-11-21,52,36,27,30,25,21,90,67,30,30.28,30.18,2,0,5,0.00
2012-11-22,58,37,23,33,23,19,93,64,22,30.31,30.13,3,0,5,0.00
2012-11-23,56,44,30,42,31,19,94,63,40,30.13,29.64,8,2,15,0.10
2012-11-24,36,29,25,34,23,20,92,80,67,29.81,29.66,8,5,17,0.00
2012-11-25,30,26,24,24,22,18,94,83,72,29.91,29.81,6,4,17,0.00
2012-11-26,34,31,28,26,24,22,87,77,68,30.26,29.91,5,3,15,0.00
2012-11-27,32,29,22,29,25,20,93,87,75,30.31,30.25,2,0,15,0.00
2012-11-28,31,26,22,24,22,20,94,86,70,30.27,30.19,5,1,10,0.00
2012-11-29,38,31,23,25,22,18,85,70,58,30.31,30.22,7,3,16,0.03
2012-11-30,33,27,21,27,22,16,90,81,63,30.48,30.28,3,1,14,0.00
2012-12-1,40,32,22,38,30,19,96,90,87,30.53,30.40,4,1,8,0.02
2012-12-2,49,45,40,45,41,37,96,86,75,30.41,30.02,6,3,16,0.10
2012-12-3,48,41,30,46,39,30,98,93,85,30.27,30.06,6,2,16,0.01
2012-12-4,61,53,32,54,49,32,99,87,74,30.25,29.86,6,3,15,0.02
2012-12-5,56,34,22,51,30,15,96,85,74,30.28,29.88,11,5,18,0.22
2012-12-6,38,25,18,21,16,1,87,71,25,30.42,30.24,5,1,16,0.00
2012-12-7,36,34,32,34,25,0,97,74,24,30.25,30.03,4,1,11,0.17
2012-12-8,46,41,35,44,40,34,98,96,91,30.03,29.84,5,1,14,0.18
2012-12-9,43,36,32,41,31,26,95,82,62,30.27,29.99,6,2,12,0.06
2012-12-10,52,46,34,49,44,33,97,95,91,29.99,29.52,8,3,14,0.57
2012-12-11,34,30,26,33,28,24,97,91,83,30.21,29.64,6,2,13,0.02
2012-12-12,36,26,19,27,22,18,96,87,66,30.48,30.21,5,1,12,0.00
2012-12-13,39,28,20,29,24,19,97,87,62,30.52,30.33,2,0,5,0.01
2012-12-14,39,31,24,30,25,19,91,78,57,30.33,30.19,7,2,14,0.00
2012-12-15,43,33,29,30,28,25,89,80,54,30.32,30.18,4,1,7,0.00
2012-12-16,38,36,31,35,33,27,95,89,81,30.19,29.91,6,3,15,0.02
2012-12-17,41,37,34,39,36,33,98,95,91,29.91,29.66,6,2,15,0.26
2012-12-18,42,38,33,41,37,31,98,97,93,29.66,29.44,7,2,16,0.55
2012-12-19,36,32,29,31,28,23,93,82,69,30.16,29.61,8,4,20,0.00
2012-12-20,35,30,20,33,24,18,95,80,64,30.25,29.76,7,2,20,0.00
2012-12-21,42,33,30,41,31,27,97,93,89,29.76,29.09,7,4,23,0.71
2012-12-22,30,25,22,28,22,19,94,89,83,29.83,29.21,10,6,27,0.00
2012-12-23,33,28,25,25,22,16,92,79,57,29.94,29.81,8,4,20,0.00
2012-12-24,32,26,23,22,20,18,84,77,64,30.11,29.94,6,2,17,0.00
2012-12-25,28,25,20,26,23,18,94,91,85,30.32,29.94,5,2,9,0.00
2012-12-26,25,19,10,22,16,8,95,86,69,30.36,29.73,13,4,25,0.00
2012-12-27,27,23,18,26,22,16,96,95,94,29.90,29.56,13,4,25,0.00
2012-12-28,24,22,18,22,20,17,96,95,94,30.15,29.90,7,3,22,0.00
2012-12-29,24,22,21,22,21,19,96,95,94,30.09,29.62,5,1,9,0.00
2012-12-30,22,18,15,21,15,12,96,88,73,30.21,29.67,8,3,19,0.00
2012-12-31,31,25,16,25,20,14,92,81,65,30.20,29.85,6,3,17,0.00
2013-1-1,28,21,9,26,17,6,92,85,76,30.01,29.84,8,4,20,0.00